sensor_id;sensor_type;location;lat;lon;timestamp;temperature;humidity
52459;DHT22;38372;52.902;6.024;2022-09-09T00:06:30;13.70;99.90
52459;DHT22;38372;52.902;6.024;2022-09-09T00:09:16;13.70;99.90
52459;DHT22;38372;52.902;6.024;2022-09-09T00:11:48;13.60;99.90
52459;DHT22;38372;52.902;6.024;2022-09-09T00:16:53;13.60;99.90
52459;DHT22;38372;52.902;6.024;2022-09-09T00:19:27;13.60;99.90
52459;DHT22;38372;52.902;6.024;2022-09-09T00:22:17;13.60;99.90
52459;DHT22;38372;52.902;6.024;2022-09-09T00:24:47;13.50;99.90
52459;DHT22;38372;52.902;6.024;2022-09-09T00:27:31;13.50;99.90
52459;DHT22;38372;52.902;6.024;2022-09-09T00:30:22;13.50;99.90
52459;DHT22;38372;52.902;6.024;2022-09-09T00:32:53;13.50;99.90
52459;DHT22;38372;52.902;6.024;2022-09-09T00:35:46;13.50;99.90
52459;DHT22;38372;52.902;6.024;2022-09-09T00:41:11;13.50;99.90
52459;DHT22;38372;52.902;6.024;2022-09-09T00:43:41;13.50;99.90
52459;DHT22;38372;52.902;6.024;2022-09-09T00:51:16;13.40;99.90
52459;DHT22;38372;52.902;6.024;2022-09-09T00:56:52;13.50;99.90
52459;DHT22;38372;52.902;6.024;2022-09-09T01:01:55;13.50;99.90
52459;DHT22;38372;52.902;6.024;2022-09-09T01:04:32;13.50;99.90
52459;DHT22;38372;52.902;6.024;2022-09-09T01:07:12;13.50;99.90
52459;DHT22;38372;52.902;6.024;2022-09-09T01:09:56;13.50;99.90
52459;DHT22;38372;52.902;6.024;2022-09-09T01:12:42;13.60;99.90
52459;DHT22;38372;52.902;6.024;2022-09-09T01:15:22;13.60;99.90
52459;DHT22;38372;52.902;6.024;2022-09-09T01:18:12;13.60;99.90
52459;DHT22;38372;52.902;6.024;2022-09-09T01:26:37;13.70;99.90
52459;DHT22;38372;52.902;6.024;2022-09-09T01:29:09;13.80;99.90
52459;DHT22;38372;52.902;6.024;2022-09-09T01:31:41;13.80;99.90
52459;DHT22;38372;52.902;6.024;2022-09-09T01:34:16;13.80;99.90
52459;DHT22;38372;52.902;6.024;2022-09-09T01:39:25;13.80;99.90
52459;DHT22;38372;52.902;6.024;2022-09-09T01:41:52;13.80;99.90
52459;DHT22;38372;52.902;6.024;2022-09-09T01:44:19;13.90;99.90
52459;DHT22;38372;52.902;6.024;2022-09-09T01:46:45;13.90;99.90
52459;DHT22;38372;52.902;6.024;2022-09-09T01:49:11;13.90;99.90
52459;DHT22;38372;52.902;6.024;2022-09-09T01:51:39;13.90;99.90
52459;DHT22;38372;52.902;6.024;2022-09-09T01:54:07;13.90;99.90
52459;DHT22;38372;52.902;6.024;2022-09-09T02:02:10;13.90;99.90
52459;DHT22;38372;52.902;6.024;2022-09-09T02:07:06;13.90;99.90
52459;DHT22;38372;52.902;6.024;2022-09-09T02:09:34;13.90;99.90
52459;DHT22;38372;52.902;6.024;2022-09-09T02:12:08;13.90;99.90
52459;DHT22;38372;52.902;6.024;2022-09-09T02:14:40;13.90;99.90
52459;DHT22;38372;52.902;6.024;2022-09-09T02:17:11;14.00;99.90
52459;DHT22;38372;52.902;6.024;2022-09-09T02:19:44;14.00;99.90
52459;DHT22;38372;52.902;6.024;2022-09-09T02:22:11;14.10;99.90
52459;DHT22;38372;52.902;6.024;2022-09-09T02:24:39;14.10;99.90
52459;DHT22;38372;52.902;6.024;2022-09-09T02:27:08;14.10;99.90
52459;DHT22;38372;52.902;6.024;2022-09-09T02:29:39;14.10;99.90
52459;DHT22;38372;52.902;6.024;2022-09-09T02:32:10;14.10;99.90
52459;DHT22;38372;52.902;6.024;2022-09-09T02:34:46;14.10;99.90
52459;DHT22;38372;52.902;6.024;2022-09-09T02:37:15;14.10;99.90
52459;DHT22;38372;52.902;6.024;2022-09-09T02:39:43;14.10;99.90
52459;DHT22;38372;52.902;6.024;2022-09-09T02:42:08;14.20;99.90
52459;DHT22;38372;52.902;6.024;2022-09-09T02:44:35;14.20;99.90
52459;DHT22;38372;52.902;6.024;2022-09-09T02:52:18;14.20;99.90
52459;DHT22;38372;52.902;6.024;2022-09-09T02:54:49;14.20;99.90
52459;DHT22;38372;52.902;6.024;2022-09-09T02:57:21;14.20;99.90
52459;DHT22;38372;52.902;6.024;2022-09-09T02:59:49;14.30;99.90
52459;DHT22;38372;52.902;6.024;2022-09-09T03:02:16;14.30;99.90
52459;DHT22;38372;52.902;6.024;2022-09-09T03:04:41;14.30;99.90
52459;DHT22;38372;52.902;6.024;2022-09-09T03:07:10;14.30;99.90
52459;DHT22;38372;52.902;6.024;2022-09-09T03:09:37;14.30;99.90
52459;DHT22;38372;52.902;6.024;2022-09-09T03:12:03;14.30;99.90
52459;DHT22;38372;52.902;6.024;2022-09-09T03:14:29;14.30;99.90
52459;DHT22;38372;52.902;6.024;2022-09-09T03:16:56;14.30;99.90
52459;DHT22;38372;52.902;6.024;2022-09-09T03:19:23;14.30;99.90
52459;DHT22;38372;52.902;6.024;2022-09-09T03:21:50;14.30;99.90
52459;DHT22;38372;52.902;6.024;2022-09-09T03:24:15;14.30;99.90
52459;DHT22;38372;52.902;6.024;2022-09-09T03:26:42;14.30;99.90
52459;DHT22;38372;52.902;6.024;2022-09-09T03:29:11;14.20;99.90
52459;DHT22;38372;52.902;6.024;2022-09-09T03:31:38;14.20;99.90
52459;DHT22;38372;52.902;6.024;2022-09-09T03:34:05;14.20;99.90
52459;DHT22;38372;52.902;6.024;2022-09-09T03:36:31;14.20;99.90
52459;DHT22;38372;52.902;6.024;2022-09-09T03:38:57;14.20;99.90
52459;DHT22;38372;52.902;6.024;2022-09-09T03:41:24;14.10;99.90
52459;DHT22;38372;52.902;6.024;2022-09-09T03:43:53;14.10;99.90
52459;DHT22;38372;52.902;6.024;2022-09-09T03:46:24;14.10;99.90
52459;DHT22;38372;52.902;6.024;2022-09-09T03:48:50;14.10;99.90
52459;DHT22;38372;52.902;6.024;2022-09-09T03:51:18;14.10;99.90
52459;DHT22;38372;52.902;6.024;2022-09-09T03:53:44;14.10;99.90
52459;DHT22;38372;52.902;6.024;2022-09-09T03:56:10;14.10;99.90
52459;DHT22;38372;52.902;6.024;2022-09-09T03:58:39;14.10;99.90
52459;DHT22;38372;52.902;6.024;2022-09-09T04:01:07;14.10;99.90
52459;DHT22;38372;52.902;6.024;2022-09-09T04:03:36;14.10;99.90
52459;DHT22;38372;52.902;6.024;2022-09-09T04:06:04;14.10;99.90
52459;DHT22;38372;52.902;6.024;2022-09-09T04:08:31;14.10;99.90
52459;DHT22;38372;52.902;6.024;2022-09-09T04:10:57;14.10;99.90
52459;DHT22;38372;52.902;6.024;2022-09-09T04:13:24;14.10;99.90
52459;DHT22;38372;52.902;6.024;2022-09-09T04:15:52;14.20;99.90
52459;DHT22;38372;52.902;6.024;2022-09-09T04:18:19;14.20;99.90
52459;DHT22;38372;52.902;6.024;2022-09-09T04:20:49;14.20;99.90
52459;DHT22;38372;52.902;6.024;2022-09-09T04:23:16;14.20;99.90
52459;DHT22;38372;52.902;6.024;2022-09-09T04:25:48;14.20;99.90
52459;DHT22;38372;52.902;6.024;2022-09-09T04:28:15;14.20;99.90
52459;DHT22;38372;52.902;6.024;2022-09-09T04:30:42;14.10;99.90
52459;DHT22;38372;52.902;6.024;2022-09-09T04:33:08;14.20;99.90
52459;DHT22;38372;52.902;6.024;2022-09-09T04:35:37;14.20;99.90
52459;DHT22;38372;52.902;6.024;2022-09-09T04:38:03;14.20;99.90
52459;DHT22;38372;52.902;6.024;2022-09-09T04:40:30;14.20;99.90
52459;DHT22;38372;52.902;6.024;2022-09-09T04:43:00;14.20;99.90
52459;DHT22;38372;52.902;6.024;2022-09-09T04:45:26;14.20;99.90
52459;DHT22;38372;52.902;6.024;2022-09-09T04:47:53;14.20;99.90
52459;DHT22;38372;52.902;6.024;2022-09-09T04:50:19;14.20;99.90
52459;DHT22;38372;52.902;6.024;2022-09-09T04:52:45;14.10;99.90
52459;DHT22;38372;52.902;6.024;2022-09-09T04:55:11;14.10;99.90
52459;DHT22;38372;52.902;6.024;2022-09-09T04:57:38;14.10;99.90
52459;DHT22;38372;52.902;6.024;2022-09-09T05:00:05;14.10;99.90
52459;DHT22;38372;52.902;6.024;2022-09-09T05:02:31;14.10;99.90
52459;DHT22;38372;52.902;6.024;2022-09-09T05:04:58;14.00;99.90
52459;DHT22;38372;52.902;6.024;2022-09-09T05:07:24;14.00;99.90
52459;DHT22;38372;52.902;6.024;2022-09-09T05:09:51;14.00;99.90
52459;DHT22;38372;52.902;6.024;2022-09-09T05:12:17;14.00;99.90
52459;DHT22;38372;52.902;6.024;2022-09-09T05:14:43;14.00;99.90
52459;DHT22;38372;52.902;6.024;2022-09-09T05:17:10;14.00;99.90
52459;DHT22;38372;52.902;6.024;2022-09-09T05:19:36;13.90;99.90
52459;DHT22;38372;52.902;6.024;2022-09-09T05:22:02;13.90;99.90
52459;DHT22;38372;52.902;6.024;2022-09-09T05:24:28;13.90;99.90
52459;DHT22;38372;52.902;6.024;2022-09-09T05:26:54;13.90;99.90
52459;DHT22;38372;52.902;6.024;2022-09-09T05:29:23;13.90;99.90
52459;DHT22;38372;52.902;6.024;2022-09-09T05:31:49;13.90;99.90
52459;DHT22;38372;52.902;6.024;2022-09-09T05:34:15;13.90;99.90
52459;DHT22;38372;52.902;6.024;2022-09-09T05:36:40;13.90;99.90
52459;DHT22;38372;52.902;6.024;2022-09-09T05:39:06;13.90;99.90
52459;DHT22;38372;52.902;6.024;2022-09-09T05:41:32;13.80;99.90
52459;DHT22;38372;52.902;6.024;2022-09-09T05:43:58;13.80;99.90
52459;DHT22;38372;52.902;6.024;2022-09-09T05:46:26;13.80;99.90
52459;DHT22;38372;52.902;6.024;2022-09-09T05:48:52;13.80;99.90
52459;DHT22;38372;52.902;6.024;2022-09-09T05:51:21;13.90;99.90
52459;DHT22;38372;52.902;6.024;2022-09-09T05:53:48;13.90;99.90
52459;DHT22;38372;52.902;6.024;2022-09-09T05:56:23;13.90;99.90
52459;DHT22;38372;52.902;6.024;2022-09-09T05:58:50;13.90;99.90
52459;DHT22;38372;52.902;6.024;2022-09-09T06:01:20;13.90;99.90
52459;DHT22;38372;52.902;6.024;2022-09-09T06:03:47;13.90;99.90
52459;DHT22;38372;52.902;6.024;2022-09-09T06:06:19;13.90;99.90
52459;DHT22;38372;52.902;6.024;2022-09-09T06:08:50;13.90;99.90
52459;DHT22;38372;52.902;6.024;2022-09-09T06:11:19;13.90;99.90
52459;DHT22;38372;52.902;6.024;2022-09-09T06:13:45;14.00;99.90
52459;DHT22;38372;52.902;6.024;2022-09-09T06:16:15;14.00;99.90
52459;DHT22;38372;52.902;6.024;2022-09-09T06:18:42;14.00;99.90
52459;DHT22;38372;52.902;6.024;2022-09-09T06:21:32;14.10;99.90
52459;DHT22;38372;52.902;6.024;2022-09-09T06:23:59;14.00;99.90
52459;DHT22;38372;52.902;6.024;2022-09-09T06:26:33;14.10;99.90
52459;DHT22;38372;52.902;6.024;2022-09-09T06:29:01;14.20;99.90
52459;DHT22;38372;52.902;6.024;2022-09-09T06:31:30;14.20;99.90
52459;DHT22;38372;52.902;6.024;2022-09-09T06:33:57;14.30;99.90
52459;DHT22;38372;52.902;6.024;2022-09-09T06:36:25;14.30;99.90
52459;DHT22;38372;52.902;6.024;2022-09-09T06:38:51;14.50;99.90
52459;DHT22;38372;52.902;6.024;2022-09-09T06:41:19;14.50;99.90
52459;DHT22;38372;52.902;6.024;2022-09-09T06:43:48;14.50;99.90
52459;DHT22;38372;52.902;6.024;2022-09-09T06:46:17;14.60;99.90
52459;DHT22;38372;52.902;6.024;2022-09-09T06:48:44;14.50;99.90
52459;DHT22;38372;52.902;6.024;2022-09-09T06:51:18;14.50;99.90
52459;DHT22;38372;52.902;6.024;2022-09-09T06:53:46;14.50;99.90
52459;DHT22;38372;52.902;6.024;2022-09-09T06:58:50;14.40;99.90
52459;DHT22;38372;52.902;6.024;2022-09-09T07:01:21;14.40;99.90
52459;DHT22;38372;52.902;6.024;2022-09-09T07:03:49;14.40;99.90
52459;DHT22;38372;52.902;6.024;2022-09-09T07:06:20;14.40;99.90
52459;DHT22;38372;52.902;6.024;2022-09-09T07:08:51;14.50;99.90
52459;DHT22;38372;52.902;6.024;2022-09-09T07:11:22;14.50;99.90
52459;DHT22;38372;52.902;6.024;2022-09-09T07:13:49;14.50;99.90
52459;DHT22;38372;52.902;6.024;2022-09-09T07:16:20;14.50;99.90
52459;DHT22;38372;52.902;6.024;2022-09-09T07:18:46;14.50;99.90
52459;DHT22;38372;52.902;6.024;2022-09-09T07:21:13;14.50;99.90
52459;DHT22;38372;52.902;6.024;2022-09-09T07:23:40;14.50;99.90
52459;DHT22;38372;52.902;6.024;2022-09-09T07:26:18;14.60;99.90
52459;DHT22;38372;52.902;6.024;2022-09-09T07:28:45;14.60;99.90
52459;DHT22;38372;52.902;6.024;2022-09-09T07:31:16;14.70;99.90
52459;DHT22;38372;52.902;6.024;2022-09-09T07:33:43;14.80;99.90
52459;DHT22;38372;52.902;6.024;2022-09-09T07:38:47;15.20;99.90
52459;DHT22;38372;52.902;6.024;2022-09-09T07:41:23;15.50;99.90
52459;DHT22;38372;52.902;6.024;2022-09-09T07:43:50;15.70;99.90
52459;DHT22;38372;52.902;6.024;2022-09-09T07:46:18;15.80;99.90
52459;DHT22;38372;52.902;6.024;2022-09-09T07:48:49;15.90;99.90
52459;DHT22;38372;52.902;6.024;2022-09-09T07:51:25;16.00;99.90
52459;DHT22;38372;52.902;6.024;2022-09-09T07:53:53;16.10;99.90
52459;DHT22;38372;52.902;6.024;2022-09-09T07:56:20;16.20;99.90
52459;DHT22;38372;52.902;6.024;2022-09-09T07:58:50;16.30;99.90
52459;DHT22;38372;52.902;6.024;2022-09-09T08:01:27;16.30;99.90
52459;DHT22;38372;52.902;6.024;2022-09-09T08:03:56;16.40;99.90
52459;DHT22;38372;52.902;6.024;2022-09-09T08:06:26;16.50;99.90
52459;DHT22;38372;52.902;6.024;2022-09-09T08:08:53;16.50;99.90
52459;DHT22;38372;52.902;6.024;2022-09-09T08:11:25;16.50;99.90
52459;DHT22;38372;52.902;6.024;2022-09-09T08:13:52;16.60;99.90
52459;DHT22;38372;52.902;6.024;2022-09-09T08:16:24;16.60;99.90
52459;DHT22;38372;52.902;6.024;2022-09-09T08:18:51;16.60;99.90
52459;DHT22;38372;52.902;6.024;2022-09-09T08:21:20;16.70;99.90
52459;DHT22;38372;52.902;6.024;2022-09-09T08:23:47;17.00;99.90
52459;DHT22;38372;52.902;6.024;2022-09-09T08:26:18;17.10;99.90
52459;DHT22;38372;52.902;6.024;2022-09-09T08:28:46;17.40;99.90
52459;DHT22;38372;52.902;6.024;2022-09-09T08:31:15;17.50;99.90
52459;DHT22;38372;52.902;6.024;2022-09-09T08:33:43;17.80;99.90
52459;DHT22;38372;52.902;6.024;2022-09-09T08:36:12;17.90;99.90
52459;DHT22;38372;52.902;6.024;2022-09-09T08:38:41;17.80;99.90
52459;DHT22;38372;52.902;6.024;2022-09-09T08:50:18;18.30;99.90
52459;DHT22;38372;52.902;6.024;2022-09-09T08:55:44;18.20;99.90
52459;DHT22;38372;52.902;6.024;2022-09-09T09:05:59;18.60;99.90
52459;DHT22;38372;52.902;6.024;2022-09-09T09:08:36;18.80;99.90
52459;DHT22;38372;52.902;6.024;2022-09-09T09:11:06;18.80;99.90
52459;DHT22;38372;52.902;6.024;2022-09-09T09:13:47;18.60;99.90
52459;DHT22;38372;52.902;6.024;2022-09-09T09:16:31;18.40;99.90
52459;DHT22;38372;52.902;6.024;2022-09-09T09:18:59;18.20;99.90
52459;DHT22;38372;52.902;6.024;2022-09-09T09:22:00;18.00;99.90
52459;DHT22;38372;52.902;6.024;2022-09-09T09:25:11;17.90;99.90
52459;DHT22;38372;52.902;6.024;2022-09-09T09:28:35;17.80;99.90
52459;DHT22;38372;52.902;6.024;2022-09-09T09:31:05;17.90;99.90
52459;DHT22;38372;52.902;6.024;2022-09-09T09:33:48;18.40;99.90
52459;DHT22;38372;52.902;6.024;2022-09-09T09:36:16;18.60;99.90
52459;DHT22;38372;52.902;6.024;2022-09-09T09:38:59;19.00;99.90
52459;DHT22;38372;52.902;6.024;2022-09-09T09:41:33;19.00;99.90
52459;DHT22;38372;52.902;6.024;2022-09-09T09:43:59;18.90;99.90
52459;DHT22;38372;52.902;6.024;2022-09-09T09:46:27;18.80;99.90
52459;DHT22;38372;52.902;6.024;2022-09-09T09:49:01;18.80;99.90
52459;DHT22;38372;52.902;6.024;2022-09-09T09:51:29;18.80;99.90
52459;DHT22;38372;52.902;6.024;2022-09-09T09:56:35;18.90;99.90
52459;DHT22;38372;52.902;6.024;2022-09-09T09:59:01;18.90;99.90
52459;DHT22;38372;52.902;6.024;2022-09-09T10:01:30;19.10;99.90
52459;DHT22;38372;52.902;6.024;2022-09-09T10:04:21;19.40;99.90
52459;DHT22;38372;52.902;6.024;2022-09-09T10:06:50;19.40;99.90
52459;DHT22;38372;52.902;6.024;2022-09-09T10:09:23;19.60;99.90
52459;DHT22;38372;52.902;6.024;2022-09-09T10:11:59;19.90;99.90
52459;DHT22;38372;52.902;6.024;2022-09-09T10:22:36;18.80;99.90
52459;DHT22;38372;52.902;6.024;2022-09-09T10:25:35;18.60;99.90
52459;DHT22;38372;52.902;6.024;2022-09-09T10:36:47;18.30;99.90
52459;DHT22;38372;52.902;6.024;2022-09-09T10:39:36;18.30;99.90
52459;DHT22;38372;52.902;6.024;2022-09-09T10:42:24;18.30;99.90
52459;DHT22;38372;52.902;6.024;2022-09-09T10:44:55;18.40;99.90
52459;DHT22;38372;52.902;6.024;2022-09-09T10:55:55;18.60;99.90
52459;DHT22;38372;52.902;6.024;2022-09-09T10:58:38;18.50;99.90
52459;DHT22;38372;52.902;6.024;2022-09-09T11:04:17;18.50;99.90
52459;DHT22;38372;52.902;6.024;2022-09-09T11:06:48;18.40;99.90
52459;DHT22;38372;52.902;6.024;2022-09-09T11:09:24;18.30;99.90
52459;DHT22;38372;52.902;6.024;2022-09-09T11:11:55;18.20;99.90
52459;DHT22;38372;52.902;6.024;2022-09-09T11:14:50;18.10;99.90
52459;DHT22;38372;52.902;6.024;2022-09-09T11:17:38;17.90;99.90
52459;DHT22;38372;52.902;6.024;2022-09-09T11:20:06;17.80;99.90
52459;DHT22;38372;52.902;6.024;2022-09-09T11:22:48;17.80;99.90
52459;DHT22;38372;52.902;6.024;2022-09-09T11:28:14;18.10;99.90
52459;DHT22;38372;52.902;6.024;2022-09-09T11:30:58;18.50;99.90
52459;DHT22;38372;52.902;6.024;2022-09-09T11:42:18;18.80;99.90
52459;DHT22;38372;52.902;6.024;2022-09-09T11:44:44;18.80;99.90
52459;DHT22;38372;52.902;6.024;2022-09-09T11:47:24;18.80;99.90
52459;DHT22;38372;52.902;6.024;2022-09-09T11:49:52;18.90;99.90
52459;DHT22;38372;52.902;6.024;2022-09-09T11:52:25;19.10;99.90
52459;DHT22;38372;52.902;6.024;2022-09-09T11:54:54;19.30;99.90
52459;DHT22;38372;52.902;6.024;2022-09-09T11:57:34;19.30;99.90
52459;DHT22;38372;52.902;6.024;2022-09-09T12:00:00;19.30;99.90
52459;DHT22;38372;52.902;6.024;2022-09-09T12:02:29;19.20;99.90
52459;DHT22;38372;52.902;6.024;2022-09-09T12:05:07;19.00;99.90
52459;DHT22;38372;52.902;6.024;2022-09-09T12:07:40;18.90;99.90
52459;DHT22;38372;52.902;6.024;2022-09-09T12:12:36;18.70;99.90
52459;DHT22;38372;52.902;6.024;2022-09-09T12:17:46;18.70;99.90
52459;DHT22;38372;52.902;6.024;2022-09-09T12:28:15;18.70;99.90
52459;DHT22;38372;52.902;6.024;2022-09-09T12:33:18;18.60;99.90
52459;DHT22;38372;52.902;6.024;2022-09-09T12:35:49;18.50;99.90
52459;DHT22;38372;52.902;6.024;2022-09-09T12:38:39;18.30;99.90
52459;DHT22;38372;52.902;6.024;2022-09-09T12:41:06;18.00;99.90
52459;DHT22;38372;52.902;6.024;2022-09-09T12:43:31;18.00;99.90
52459;DHT22;38372;52.902;6.024;2022-09-09T12:46:03;18.20;99.90
52459;DHT22;38372;52.902;6.024;2022-09-09T12:48:36;18.50;99.90
52459;DHT22;38372;52.902;6.024;2022-09-09T12:51:05;18.80;99.90
52459;DHT22;38372;52.902;6.024;2022-09-09T12:53:35;18.80;99.90
52459;DHT22;38372;52.902;6.024;2022-09-09T12:56:04;18.90;99.90
52459;DHT22;38372;52.902;6.024;2022-09-09T12:58:33;18.90;99.90
52459;DHT22;38372;52.902;6.024;2022-09-09T13:01:01;18.80;99.90
52459;DHT22;38372;52.902;6.024;2022-09-09T13:03:28;18.60;99.90
52459;DHT22;38372;52.902;6.024;2022-09-09T13:05:58;18.40;99.90
52459;DHT22;38372;52.902;6.024;2022-09-09T13:08:25;18.30;99.90
52459;DHT22;38372;52.902;6.024;2022-09-09T13:11:04;18.20;99.90
52459;DHT22;38372;52.902;6.024;2022-09-09T13:13:39;18.30;99.90
52459;DHT22;38372;52.902;6.024;2022-09-09T13:16:17;18.40;99.90
52459;DHT22;38372;52.902;6.024;2022-09-09T13:18:44;18.50;99.90
52459;DHT22;38372;52.902;6.024;2022-09-09T13:21:09;18.60;99.90
52459;DHT22;38372;52.902;6.024;2022-09-09T13:23:37;18.70;99.90
52459;DHT22;38372;52.902;6.024;2022-09-09T13:26:06;18.80;99.90
52459;DHT22;38372;52.902;6.024;2022-09-09T13:28:33;18.90;99.90
52459;DHT22;38372;52.902;6.024;2022-09-09T13:31:20;19.10;99.90
52459;DHT22;38372;52.902;6.024;2022-09-09T13:33:46;19.10;99.90
52459;DHT22;38372;52.902;6.024;2022-09-09T13:36:13;19.20;99.90
52459;DHT22;38372;52.902;6.024;2022-09-09T13:41:23;19.10;99.90
52459;DHT22;38372;52.902;6.024;2022-09-09T13:43:50;18.90;99.90
52459;DHT22;38372;52.902;6.024;2022-09-09T13:46:36;18.80;99.90
52459;DHT22;38372;52.902;6.024;2022-09-09T13:49:18;18.70;99.90
52459;DHT22;38372;52.902;6.024;2022-09-09T13:51:46;18.80;99.90
52459;DHT22;38372;52.902;6.024;2022-09-09T13:54:15;19.00;99.90
52459;DHT22;38372;52.902;6.024;2022-09-09T13:56:41;19.00;99.90
52459;DHT22;38372;52.902;6.024;2022-09-09T13:59:16;19.10;99.90
52459;DHT22;38372;52.902;6.024;2022-09-09T14:01:42;19.20;99.90
52459;DHT22;38372;52.902;6.024;2022-09-09T14:04:08;19.10;99.90
52459;DHT22;38372;52.902;6.024;2022-09-09T14:06:35;18.90;99.90
52459;DHT22;38372;52.902;6.024;2022-09-09T14:09:11;18.80;99.90
52459;DHT22;38372;52.902;6.024;2022-09-09T14:11:38;18.90;99.90
52459;DHT22;38372;52.902;6.024;2022-09-09T14:14:04;18.90;99.90
52459;DHT22;38372;52.902;6.024;2022-09-09T14:16:30;18.80;99.90
52459;DHT22;38372;52.902;6.024;2022-09-09T14:18:56;18.80;99.90
52459;DHT22;38372;52.902;6.024;2022-09-09T14:21:23;18.70;99.90
52459;DHT22;38372;52.902;6.024;2022-09-09T14:23:49;18.70;99.90
52459;DHT22;38372;52.902;6.024;2022-09-09T14:26:15;18.60;99.90
52459;DHT22;38372;52.902;6.024;2022-09-09T14:28:40;18.60;99.90
52459;DHT22;38372;52.902;6.024;2022-09-09T14:31:07;18.60;99.90
52459;DHT22;38372;52.902;6.024;2022-09-09T14:33:32;18.60;99.90
52459;DHT22;38372;52.902;6.024;2022-09-09T14:36:01;18.50;99.90
52459;DHT22;38372;52.902;6.024;2022-09-09T14:38:32;18.40;99.90
52459;DHT22;38372;52.902;6.024;2022-09-09T14:40:59;18.20;99.90
52459;DHT22;38372;52.902;6.024;2022-09-09T14:43:26;18.00;99.90
52459;DHT22;38372;52.902;6.024;2022-09-09T14:45:52;17.70;99.90
52459;DHT22;38372;52.902;6.024;2022-09-09T14:48:18;17.50;99.90
52459;DHT22;38372;52.902;6.024;2022-09-09T14:50:44;17.10;99.90
52459;DHT22;38372;52.902;6.024;2022-09-09T14:53:10;16.80;99.90
52459;DHT22;38372;52.902;6.024;2022-09-09T14:55:36;16.50;99.90
52459;DHT22;38372;52.902;6.024;2022-09-09T14:58:04;16.40;99.90
52459;DHT22;38372;52.902;6.024;2022-09-09T15:00:32;16.30;99.90
52459;DHT22;38372;52.902;6.024;2022-09-09T15:02:57;16.30;99.90
52459;DHT22;38372;52.902;6.024;2022-09-09T15:05:23;16.40;99.90
52459;DHT22;38372;52.902;6.024;2022-09-09T15:07:50;16.50;99.90
52459;DHT22;38372;52.902;6.024;2022-09-09T15:10:15;16.70;99.90
52459;DHT22;38372;52.902;6.024;2022-09-09T15:12:43;16.90;99.90
52459;DHT22;38372;52.902;6.024;2022-09-09T15:15:09;17.00;99.90
52459;DHT22;38372;52.902;6.024;2022-09-09T15:17:35;17.10;99.90
52459;DHT22;38372;52.902;6.024;2022-09-09T15:20:03;17.20;99.90
52459;DHT22;38372;52.902;6.024;2022-09-09T15:22:31;17.30;99.90
52459;DHT22;38372;52.902;6.024;2022-09-09T15:24:57;17.40;99.90
52459;DHT22;38372;52.902;6.024;2022-09-09T15:27:23;17.50;99.90
52459;DHT22;38372;52.902;6.024;2022-09-09T15:29:49;17.60;99.90
52459;DHT22;38372;52.902;6.024;2022-09-09T15:32:16;17.70;99.90
52459;DHT22;38372;52.902;6.024;2022-09-09T15:34:42;17.80;99.90
52459;DHT22;38372;52.902;6.024;2022-09-09T15:37:11;17.90;99.90
52459;DHT22;38372;52.902;6.024;2022-09-09T15:39:39;18.00;99.90
52459;DHT22;38372;52.902;6.024;2022-09-09T15:42:06;18.20;99.90
52459;DHT22;38372;52.902;6.024;2022-09-09T15:44:42;18.40;99.90
52459;DHT22;38372;52.902;6.024;2022-09-09T15:47:11;18.40;99.90
52459;DHT22;38372;52.902;6.024;2022-09-09T15:49:38;18.30;99.90
52459;DHT22;38372;52.902;6.024;2022-09-09T15:52:04;18.20;99.90
52459;DHT22;38372;52.902;6.024;2022-09-09T15:54:36;18.20;99.90
52459;DHT22;38372;52.902;6.024;2022-09-09T15:57:07;18.10;99.90
52459;DHT22;38372;52.902;6.024;2022-09-09T15:59:34;18.10;99.90
52459;DHT22;38372;52.902;6.024;2022-09-09T16:02:00;18.00;99.90
52459;DHT22;38372;52.902;6.024;2022-09-09T16:04:27;18.00;99.90
52459;DHT22;38372;52.902;6.024;2022-09-09T16:07:00;18.00;99.90
52459;DHT22;38372;52.902;6.024;2022-09-09T16:09:27;18.00;99.90
52459;DHT22;38372;52.902;6.024;2022-09-09T16:11:56;18.10;99.90
52459;DHT22;38372;52.902;6.024;2022-09-09T16:14:23;18.10;99.90
52459;DHT22;38372;52.902;6.024;2022-09-09T16:16:51;18.20;99.90
52459;DHT22;38372;52.902;6.024;2022-09-09T16:19:17;18.20;99.90
52459;DHT22;38372;52.902;6.024;2022-09-09T16:21:46;18.10;99.90
52459;DHT22;38372;52.902;6.024;2022-09-09T16:24:14;18.10;99.90
52459;DHT22;38372;52.902;6.024;2022-09-09T16:26:43;18.00;99.90
52459;DHT22;38372;52.902;6.024;2022-09-09T16:29:13;17.90;99.90
52459;DHT22;38372;52.902;6.024;2022-09-09T16:31:39;17.90;99.90
52459;DHT22;38372;52.902;6.024;2022-09-09T16:34:06;17.80;99.90
52459;DHT22;38372;52.902;6.024;2022-09-09T16:36:34;17.80;99.90
52459;DHT22;38372;52.902;6.024;2022-09-09T16:39:09;17.70;99.90
52459;DHT22;38372;52.902;6.024;2022-09-09T16:41:36;17.70;99.90
52459;DHT22;38372;52.902;6.024;2022-09-09T16:44:05;17.70;99.90
52459;DHT22;38372;52.902;6.024;2022-09-09T16:46:36;17.70;99.90
52459;DHT22;38372;52.902;6.024;2022-09-09T16:49:04;17.60;99.90
52459;DHT22;38372;52.902;6.024;2022-09-09T16:51:38;17.60;99.90
52459;DHT22;38372;52.902;6.024;2022-09-09T16:54:06;17.60;99.90
52459;DHT22;38372;52.902;6.024;2022-09-09T16:56:34;17.60;99.90
52459;DHT22;38372;52.902;6.024;2022-09-09T16:59:05;17.60;99.90
52459;DHT22;38372;52.902;6.024;2022-09-09T17:01:33;17.50;99.90
52459;DHT22;38372;52.902;6.024;2022-09-09T17:04:02;17.50;99.90
52459;DHT22;38372;52.902;6.024;2022-09-09T17:06:29;17.50;99.90
52459;DHT22;38372;52.902;6.024;2022-09-09T17:08:57;17.50;99.90
52459;DHT22;38372;52.902;6.024;2022-09-09T17:11:23;17.50;99.90
52459;DHT22;38372;52.902;6.024;2022-09-09T17:13:50;17.50;99.90
52459;DHT22;38372;52.902;6.024;2022-09-09T17:16:18;17.50;99.90
52459;DHT22;38372;52.902;6.024;2022-09-09T17:18:45;17.40;99.90
52459;DHT22;38372;52.902;6.024;2022-09-09T17:21:13;17.40;99.90
52459;DHT22;38372;52.902;6.024;2022-09-09T17:23:41;17.40;99.90
52459;DHT22;38372;52.902;6.024;2022-09-09T17:26:09;17.30;99.90
52459;DHT22;38372;52.902;6.024;2022-09-09T17:28:36;17.30;99.90
52459;DHT22;38372;52.902;6.024;2022-09-09T17:31:04;17.30;99.90
52459;DHT22;38372;52.902;6.024;2022-09-09T17:33:33;17.30;99.90
52459;DHT22;38372;52.902;6.024;2022-09-09T17:36:04;17.20;99.90
52459;DHT22;38372;52.902;6.024;2022-09-09T17:38:32;17.20;99.90
52459;DHT22;38372;52.902;6.024;2022-09-09T17:41:06;17.20;99.90
52459;DHT22;38372;52.902;6.024;2022-09-09T17:43:33;17.20;99.90
52459;DHT22;38372;52.902;6.024;2022-09-09T17:46:08;17.10;99.90
52459;DHT22;38372;52.902;6.024;2022-09-09T17:48:34;17.10;99.90
52459;DHT22;38372;52.902;6.024;2022-09-09T17:51:04;17.10;99.90
52459;DHT22;38372;52.902;6.024;2022-09-09T17:53:30;17.00;99.90
52459;DHT22;38372;52.902;6.024;2022-09-09T17:56:03;17.00;99.90
52459;DHT22;38372;52.902;6.024;2022-09-09T17:58:29;16.90;99.90